sensor_id;sensor_type;location;lat;lon;timestamp;P1;durP1;ratioP1;P2;durP2;ratioP2
66256;SDS011;53049;43.446;3.698;2024-02-04T00:01:41;8.93;;;6.25;;
66256;SDS011;53049;43.446;3.698;2024-02-04T00:04:07;9.23;;;6.05;;
66256;SDS011;53049;43.446;3.698;2024-02-04T00:06:33;9.65;;;6.25;;
66256;SDS011;53049;43.446;3.698;2024-02-04T00:08:59;9.75;;;6.43;;
66256;SDS011;53049;43.446;3.698;2024-02-04T00:11:24;9.68;;;6.80;;
66256;SDS011;53049;43.446;3.698;2024-02-04T00:13:50;9.95;;;6.68;;
66256;SDS011;53049;43.446;3.698;2024-02-04T00:16:17;8.50;;;6.13;;
66256;SDS011;53049;43.446;3.698;2024-02-04T00:18:42;11.35;;;7.13;;
66256;SDS011;53049;43.446;3.698;2024-02-04T00:21:08;10.38;;;7.20;;
66256;SDS011;53049;43.446;3.698;2024-02-04T00:23:34;10.50;;;6.78;;
66256;SDS011;53049;43.446;3.698;2024-02-04T00:26:00;9.80;;;6.80;;
66256;SDS011;53049;43.446;3.698;2024-02-04T00:28:26;9.52;;;6.40;;
66256;SDS011;53049;43.446;3.698;2024-02-04T00:30:53;12.50;;;6.72;;
66256;SDS011;53049;43.446;3.698;2024-02-04T00:33:20;10.70;;;6.95;;
66256;SDS011;53049;43.446;3.698;2024-02-04T00:35:47;9.98;;;6.53;;
66256;SDS011;53049;43.446;3.698;2024-02-04T00:38:13;9.32;;;6.05;;
66256;SDS011;53049;43.446;3.698;2024-02-04T00:40:38;9.10;;;5.72;;
66256;SDS011;53049;43.446;3.698;2024-02-04T00:43:04;9.40;;;5.70;;
66256;SDS011;53049;43.446;3.698;2024-02-04T00:45:30;9.15;;;5.80;;
66256;SDS011;53049;43.446;3.698;2024-02-04T00:47:56;9.25;;;6.00;;
66256;SDS011;53049;43.446;3.698;2024-02-04T00:50:22;9.32;;;6.15;;
66256;SDS011;53049;43.446;3.698;2024-02-04T00:52:47;9.23;;;6.13;;
66256;SDS011;53049;43.446;3.698;2024-02-04T00:55:13;10.02;;;5.95;;
66256;SDS011;53049;43.446;3.698;2024-02-04T00:57:39;8.15;;;5.95;;
66256;SDS011;53049;43.446;3.698;2024-02-04T01:00:05;8.82;;;5.82;;
66256;SDS011;53049;43.446;3.698;2024-02-04T01:02:31;10.15;;;6.80;;
66256;SDS011;53049;43.446;3.698;2024-02-04T01:04:56;10.10;;;6.10;;
66256;SDS011;53049;43.446;3.698;2024-02-04T01:07:22;9.32;;;6.13;;
66256;SDS011;53049;43.446;3.698;2024-02-04T01:09:48;9.27;;;6.22;;
66256;SDS011;53049;43.446;3.698;2024-02-04T01:12:13;9.65;;;6.35;;
66256;SDS011;53049;43.446;3.698;2024-02-04T01:14:39;8.85;;;6.07;;
66256;SDS011;53049;43.446;3.698;2024-02-04T01:17:05;8.52;;;5.68;;
66256;SDS011;53049;43.446;3.698;2024-02-04T01:19:30;8.90;;;5.95;;
66256;SDS011;53049;43.446;3.698;2024-02-04T01:21:56;9.23;;;6.20;;
66256;SDS011;53049;43.446;3.698;2024-02-04T01:24:23;11.77;;;6.72;;
66256;SDS011;53049;43.446;3.698;2024-02-04T01:26:50;9.07;;;6.15;;
66256;SDS011;53049;43.446;3.698;2024-02-04T01:29:15;10.05;;;6.47;;
66256;SDS011;53049;43.446;3.698;2024-02-04T01:31:41;11.90;;;6.10;;
66256;SDS011;53049;43.446;3.698;2024-02-04T01:34:07;10.23;;;6.45;;
66256;SDS011;53049;43.446;3.698;2024-02-04T01:36:33;9.45;;;6.22;;
66256;SDS011;53049;43.446;3.698;2024-02-04T01:38:58;8.95;;;6.20;;
66256;SDS011;53049;43.446;3.698;2024-02-04T01:41:24;9.23;;;6.15;;
66256;SDS011;53049;43.446;3.698;2024-02-04T01:43:52;9.50;;;6.00;;
66256;SDS011;53049;43.446;3.698;2024-02-04T01:46:18;8.32;;;5.90;;
66256;SDS011;53049;43.446;3.698;2024-02-04T01:48:44;10.55;;;5.75;;
66256;SDS011;53049;43.446;3.698;2024-02-04T01:51:10;7.78;;;5.70;;
66256;SDS011;53049;43.446;3.698;2024-02-04T01:53:37;8.10;;;5.65;;
66256;SDS011;53049;43.446;3.698;2024-02-04T01:56:06;9.43;;;6.50;;
66256;SDS011;53049;43.446;3.698;2024-02-04T01:58:32;7.93;;;5.78;;
66256;SDS011;53049;43.446;3.698;2024-02-04T02:00:58;10.30;;;6.60;;
66256;SDS011;53049;43.446;3.698;2024-02-04T02:03:24;10.07;;;6.22;;
66256;SDS011;53049;43.446;3.698;2024-02-04T02:05:51;9.27;;;6.32;;
66256;SDS011;53049;43.446;3.698;2024-02-04T02:08:17;9.55;;;6.35;;
66256;SDS011;53049;43.446;3.698;2024-02-04T02:10:43;8.93;;;6.07;;
66256;SDS011;53049;43.446;3.698;2024-02-04T02:13:16;9.45;;;6.20;;
66256;SDS011;53049;43.446;3.698;2024-02-04T02:15:51;10.60;;;6.93;;
66256;SDS011;53049;43.446;3.698;2024-02-04T02:26:29;9.48;;;6.10;;
66256;SDS011;53049;43.446;3.698;2024-02-04T02:28:59;7.50;;;5.38;;
66256;SDS011;53049;43.446;3.698;2024-02-04T02:31:24;10.90;;;6.63;;
66256;SDS011;53049;43.446;3.698;2024-02-04T02:33:50;8.90;;;6.15;;
66256;SDS011;53049;43.446;3.698;2024-02-04T02:36:17;8.18;;;5.50;;
66256;SDS011;53049;43.446;3.698;2024-02-04T02:38:53;10.30;;;5.85;;
66256;SDS011;53049;43.446;3.698;2024-02-04T02:41:44;9.80;;;5.75;;
66256;SDS011;53049;43.446;3.698;2024-02-04T02:44:14;8.73;;;5.47;;
66256;SDS011;53049;43.446;3.698;2024-02-04T02:46:41;8.45;;;5.28;;
66256;SDS011;53049;43.446;3.698;2024-02-04T02:49:07;8.52;;;5.47;;
66256;SDS011;53049;43.446;3.698;2024-02-04T02:51:33;8.55;;;5.32;;
66256;SDS011;53049;43.446;3.698;2024-02-04T02:53:58;8.60;;;5.40;;
66256;SDS011;53049;43.446;3.698;2024-02-04T02:56:24;7.45;;;5.38;;
66256;SDS011;53049;43.446;3.698;2024-02-04T02:58:50;8.65;;;5.53;;
66256;SDS011;53049;43.446;3.698;2024-02-04T03:01:15;7.50;;;5.20;;
66256;SDS011;53049;43.446;3.698;2024-02-04T03:03:41;8.07;;;5.18;;
66256;SDS011;53049;43.446;3.698;2024-02-04T03:06:06;7.25;;;4.97;;
66256;SDS011;53049;43.446;3.698;2024-02-04T03:08:33;7.85;;;5.03;;
66256;SDS011;53049;43.446;3.698;2024-02-04T03:10:58;7.82;;;5.15;;
66256;SDS011;53049;43.446;3.698;2024-02-04T03:13:24;8.25;;;5.13;;
66256;SDS011;53049;43.446;3.698;2024-02-04T03:15:49;7.85;;;4.45;;
66256;SDS011;53049;43.446;3.698;2024-02-04T03:18:15;7.65;;;4.90;;
66256;SDS011;53049;43.446;3.698;2024-02-04T03:20:41;8.27;;;5.32;;
66256;SDS011;53049;43.446;3.698;2024-02-04T03:23:07;8.57;;;4.85;;
66256;SDS011;53049;43.446;3.698;2024-02-04T03:25:32;8.60;;;5.50;;
66256;SDS011;53049;43.446;3.698;2024-02-04T03:27:58;7.20;;;5.07;;
66256;SDS011;53049;43.446;3.698;2024-02-04T03:30:24;7.85;;;5.18;;
66256;SDS011;53049;43.446;3.698;2024-02-04T03:32:49;7.93;;;5.20;;
66256;SDS011;53049;43.446;3.698;2024-02-04T03:35:15;8.40;;;5.30;;
66256;SDS011;53049;43.446;3.698;2024-02-04T03:37:41;8.45;;;5.35;;
66256;SDS011;53049;43.446;3.698;2024-02-04T03:40:06;8.73;;;5.80;;
66256;SDS011;53049;43.446;3.698;2024-02-04T03:42:32;7.18;;;5.13;;
66256;SDS011;53049;43.446;3.698;2024-02-04T03:44:58;9.00;;;5.47;;
66256;SDS011;53049;43.446;3.698;2024-02-04T03:47:24;8.85;;;5.55;;
66256;SDS011;53049;43.446;3.698;2024-02-04T03:49:49;9.07;;;5.60;;
66256;SDS011;53049;43.446;3.698;2024-02-04T03:52:15;9.15;;;6.03;;
66256;SDS011;53049;43.446;3.698;2024-02-04T03:54:41;8.57;;;5.40;;
66256;SDS011;53049;43.446;3.698;2024-02-04T03:57:06;9.35;;;5.38;;
66256;SDS011;53049;43.446;3.698;2024-02-04T03:59:32;7.85;;;5.25;;
66256;SDS011;53049;43.446;3.698;2024-02-04T04:01:58;10.20;;;6.13;;
66256;SDS011;53049;43.446;3.698;2024-02-04T04:04:23;8.38;;;5.28;;
66256;SDS011;53049;43.446;3.698;2024-02-04T04:06:51;8.65;;;5.55;;
66256;SDS011;53049;43.446;3.698;2024-02-04T04:09:16;9.23;;;5.57;;
66256;SDS011;53049;43.446;3.698;2024-02-04T04:11:42;7.80;;;5.43;;
66256;SDS011;53049;43.446;3.698;2024-02-04T04:14:08;9.45;;;5.60;;
66256;SDS011;53049;43.446;3.698;2024-02-04T04:16:34;8.77;;;5.80;;
66256;SDS011;53049;43.446;3.698;2024-02-04T04:18:59;8.50;;;5.40;;
66256;SDS011;53049;43.446;3.698;2024-02-04T04:21:25;9.77;;;5.95;;
66256;SDS011;53049;43.446;3.698;2024-02-04T04:23:51;10.65;;;5.97;;
66256;SDS011;53049;43.446;3.698;2024-02-04T04:26:16;9.85;;;5.68;;
66256;SDS011;53049;43.446;3.698;2024-02-04T04:28:42;10.00;;;5.80;;
66256;SDS011;53049;43.446;3.698;2024-02-04T04:31:08;8.20;;;5.30;;
66256;SDS011;53049;43.446;3.698;2024-02-04T04:33:33;9.75;;;5.20;;
66256;SDS011;53049;43.446;3.698;2024-02-04T04:36:00;8.02;;;5.70;;
66256;SDS011;53049;43.446;3.698;2024-02-04T04:38:26;7.68;;;5.22;;
66256;SDS011;53049;43.446;3.698;2024-02-04T04:40:51;8.88;;;5.53;;
66256;SDS011;53049;43.446;3.698;2024-02-04T04:43:17;8.18;;;5.50;;
66256;SDS011;53049;43.446;3.698;2024-02-04T04:45:43;8.27;;;5.13;;
66256;SDS011;53049;43.446;3.698;2024-02-04T04:48:08;8.93;;;5.40;;
66256;SDS011;53049;43.446;3.698;2024-02-04T04:50:34;7.75;;;4.90;;
66256;SDS011;53049;43.446;3.698;2024-02-04T04:53:00;10.32;;;6.40;;
66256;SDS011;53049;43.446;3.698;2024-02-04T04:55:28;8.93;;;5.35;;
66256;SDS011;53049;43.446;3.698;2024-02-04T04:57:53;8.55;;;5.55;;
66256;SDS011;53049;43.446;3.698;2024-02-04T05:00:19;8.30;;;5.43;;
66256;SDS011;53049;43.446;3.698;2024-02-04T05:02:45;9.18;;;5.60;;
66256;SDS011;53049;43.446;3.698;2024-02-04T05:05:13;9.82;;;5.32;;
66256;SDS011;53049;43.446;3.698;2024-02-04T05:07:39;9.82;;;5.68;;
66256;SDS011;53049;43.446;3.698;2024-02-04T05:10:05;9.13;;;5.80;;
66256;SDS011;53049;43.446;3.698;2024-02-04T05:12:32;10.75;;;5.57;;
66256;SDS011;53049;43.446;3.698;2024-02-04T05:14:58;9.85;;;5.38;;
66256;SDS011;53049;43.446;3.698;2024-02-04T05:17:25;10.32;;;6.00;;
66256;SDS011;53049;43.446;3.698;2024-02-04T05:19:51;9.88;;;6.25;;
66256;SDS011;53049;43.446;3.698;2024-02-04T05:22:17;11.23;;;6.55;;
66256;SDS011;53049;43.446;3.698;2024-02-04T05:24:43;11.90;;;7.22;;
66256;SDS011;53049;43.446;3.698;2024-02-04T05:27:08;12.23;;;6.70;;
66256;SDS011;53049;43.446;3.698;2024-02-04T05:29:34;11.20;;;6.25;;
66256;SDS011;53049;43.446;3.698;2024-02-04T05:32:00;9.90;;;6.65;;
66256;SDS011;53049;43.446;3.698;2024-02-04T05:34:26;10.48;;;6.47;;
66256;SDS011;53049;43.446;3.698;2024-02-04T05:36:51;10.98;;;6.75;;
66256;SDS011;53049;43.446;3.698;2024-02-04T05:39:17;11.73;;;6.50;;
66256;SDS011;53049;43.446;3.698;2024-02-04T05:41:43;11.65;;;6.28;;
66256;SDS011;53049;43.446;3.698;2024-02-04T05:44:09;9.23;;;5.90;;
66256;SDS011;53049;43.446;3.698;2024-02-04T05:46:35;8.82;;;5.38;;
66256;SDS011;53049;43.446;3.698;2024-02-04T05:49:01;9.65;;;5.70;;
66256;SDS011;53049;43.446;3.698;2024-02-04T05:51:27;9.13;;;5.72;;
66256;SDS011;53049;43.446;3.698;2024-02-04T05:53:53;9.13;;;5.65;;
66256;SDS011;53049;43.446;3.698;2024-02-04T05:56:20;9.10;;;5.55;;
66256;SDS011;53049;43.446;3.698;2024-02-04T05:58:46;9.90;;;5.65;;
66256;SDS011;53049;43.446;3.698;2024-02-04T06:01:12;8.52;;;4.93;;
66256;SDS011;53049;43.446;3.698;2024-02-04T06:03:38;9.35;;;5.65;;
66256;SDS011;53049;43.446;3.698;2024-02-04T06:06:03;8.82;;;5.40;;
66256;SDS011;53049;43.446;3.698;2024-02-04T06:08:29;9.10;;;4.72;;
66256;SDS011;53049;43.446;3.698;2024-02-04T06:10:55;9.02;;;4.95;;
66256;SDS011;53049;43.446;3.698;2024-02-04T06:13:21;9.57;;;5.07;;
66256;SDS011;53049;43.446;3.698;2024-02-04T06:15:46;7.53;;;4.82;;
66256;SDS011;53049;43.446;3.698;2024-02-04T06:18:12;8.65;;;5.00;;
66256;SDS011;53049;43.446;3.698;2024-02-04T06:20:37;8.75;;;5.20;;
66256;SDS011;53049;43.446;3.698;2024-02-04T06:23:03;8.50;;;5.40;;
66256;SDS011;53049;43.446;3.698;2024-02-04T06:25:29;8.68;;;5.47;;
66256;SDS011;53049;43.446;3.698;2024-02-04T06:27:54;9.07;;;5.90;;
66256;SDS011;53049;43.446;3.698;2024-02-04T06:30:20;10.25;;;5.63;;
66256;SDS011;53049;43.446;3.698;2024-02-04T06:32:47;7.75;;;5.22;;
66256;SDS011;53049;43.446;3.698;2024-02-04T06:35:14;7.93;;;5.35;;
66256;SDS011;53049;43.446;3.698;2024-02-04T06:37:40;9.50;;;5.50;;
66256;SDS011;53049;43.446;3.698;2024-02-04T06:40:08;9.25;;;5.00;;
66256;SDS011;53049;43.446;3.698;2024-02-04T06:42:35;8.73;;;5.60;;
66256;SDS011;53049;43.446;3.698;2024-02-04T06:45:00;7.10;;;4.90;;
66256;SDS011;53049;43.446;3.698;2024-02-04T06:47:26;7.85;;;5.57;;
66256;SDS011;53049;43.446;3.698;2024-02-04T06:49:52;8.77;;;5.82;;
66256;SDS011;53049;43.446;3.698;2024-02-04T06:52:17;9.20;;;5.90;;
66256;SDS011;53049;43.446;3.698;2024-02-04T06:54:43;10.35;;;5.88;;
66256;SDS011;53049;43.446;3.698;2024-02-04T06:57:09;8.73;;;5.60;;
66256;SDS011;53049;43.446;3.698;2024-02-04T06:59:36;9.32;;;5.88;;
66256;SDS011;53049;43.446;3.698;2024-02-04T07:02:02;8.77;;;5.75;;
66256;SDS011;53049;43.446;3.698;2024-02-04T07:04:27;10.15;;;6.43;;
66256;SDS011;53049;43.446;3.698;2024-02-04T07:06:53;9.60;;;5.88;;
66256;SDS011;53049;43.446;3.698;2024-02-04T07:09:19;9.27;;;6.30;;
66256;SDS011;53049;43.446;3.698;2024-02-04T07:11:44;10.90;;;6.53;;
66256;SDS011;53049;43.446;3.698;2024-02-04T07:14:11;10.20;;;6.57;;
66256;SDS011;53049;43.446;3.698;2024-02-04T07:16:36;9.70;;;6.60;;
66256;SDS011;53049;43.446;3.698;2024-02-04T07:19:02;9.48;;;6.20;;
66256;SDS011;53049;43.446;3.698;2024-02-04T07:21:29;11.13;;;6.00;;
66256;SDS011;53049;43.446;3.698;2024-02-04T07:23:54;9.43;;;5.80;;
66256;SDS011;53049;43.446;3.698;2024-02-04T07:26:20;9.98;;;6.10;;
66256;SDS011;53049;43.446;3.698;2024-02-04T07:28:46;10.77;;;6.88;;
66256;SDS011;53049;43.446;3.698;2024-02-04T07:31:11;9.18;;;5.72;;
66256;SDS011;53049;43.446;3.698;2024-02-04T07:33:37;9.32;;;6.53;;
66256;SDS011;53049;43.446;3.698;2024-02-04T07:36:03;8.68;;;5.90;;
66256;SDS011;53049;43.446;3.698;2024-02-04T07:38:28;10.35;;;6.13;;
66256;SDS011;53049;43.446;3.698;2024-02-04T07:40:54;11.35;;;6.45;;
66256;SDS011;53049;43.446;3.698;2024-02-04T07:43:21;11.48;;;6.57;;
66256;SDS011;53049;43.446;3.698;2024-02-04T07:45:47;12.23;;;6.63;;
66256;SDS011;53049;43.446;3.698;2024-02-04T07:48:13;9.38;;;6.60;;
66256;SDS011;53049;43.446;3.698;2024-02-04T07:50:38;8.95;;;5.80;;
66256;SDS011;53049;43.446;3.698;2024-02-04T07:53:04;9.30;;;6.03;;
66256;SDS011;53049;43.446;3.698;2024-02-04T07:55:30;10.32;;;6.03;;
66256;SDS011;53049;43.446;3.698;2024-02-04T07:57:55;9.95;;;6.03;;
66256;SDS011;53049;43.446;3.698;2024-02-04T08:00:21;12.73;;;8.27;;
66256;SDS011;53049;43.446;3.698;2024-02-04T08:02:47;22.85;;;14.50;;
66256;SDS011;53049;43.446;3.698;2024-02-04T08:05:13;14.68;;;9.80;;
66256;SDS011;53049;43.446;3.698;2024-02-04T08:07:39;16.80;;;8.80;;
66256;SDS011;53049;43.446;3.698;2024-02-04T08:10:06;11.63;;;8.23;;
66256;SDS011;53049;43.446;3.698;2024-02-04T08:12:32;11.02;;;6.22;;
66256;SDS011;53049;43.446;3.698;2024-02-04T08:14:58;11.13;;;6.78;;
66256;SDS011;53049;43.446;3.698;2024-02-04T08:17:23;105.13;;;32.47;;
66256;SDS011;53049;43.446;3.698;2024-02-04T08:19:49;128.63;;;38.17;;
66256;SDS011;53049;43.446;3.698;2024-02-04T08:22:15;68.55;;;23.13;;
66256;SDS011;53049;43.446;3.698;2024-02-04T08:24:42;54.05;;;22.20;;
66256;SDS011;53049;43.446;3.698;2024-02-04T08:27:08;69.20;;;23.45;;
66256;SDS011;53049;43.446;3.698;2024-02-04T08:29:34;63.97;;;22.85;;
66256;SDS011;53049;43.446;3.698;2024-02-04T08:31:59;30.30;;;14.00;;
66256;SDS011;53049;43.446;3.698;2024-02-04T08:34:25;27.83;;;12.60;;
66256;SDS011;53049;43.446;3.698;2024-02-04T08:36:51;21.92;;;9.85;;
66256;SDS011;53049;43.446;3.698;2024-02-04T08:39:17;21.63;;;9.90;;
66256;SDS011;53049;43.446;3.698;2024-02-04T08:41:43;20.17;;;9.98;;
66256;SDS011;53049;43.446;3.698;2024-02-04T08:44:08;19.80;;;10.30;;
66256;SDS011;53049;43.446;3.698;2024-02-04T08:46:34;15.13;;;9.23;;
66256;SDS011;53049;43.446;3.698;2024-02-04T08:49:00;15.70;;;9.38;;
66256;SDS011;53049;43.446;3.698;2024-02-04T08:51:26;14.95;;;8.98;;
66256;SDS011;53049;43.446;3.698;2024-02-04T08:53:51;16.58;;;8.63;;
66256;SDS011;53049;43.446;3.698;2024-02-04T08:56:17;14.80;;;8.30;;
66256;SDS011;53049;43.446;3.698;2024-02-04T08:58:44;14.00;;;8.00;;
66256;SDS011;53049;43.446;3.698;2024-02-04T09:01:10;11.25;;;7.10;;
66256;SDS011;53049;43.446;3.698;2024-02-04T09:03:36;12.30;;;7.18;;
66256;SDS011;53049;43.446;3.698;2024-02-04T09:06:02;10.35;;;6.80;;
66256;SDS011;53049;43.446;3.698;2024-02-04T09:08:28;11.23;;;6.95;;
66256;SDS011;53049;43.446;3.698;2024-02-04T09:10:53;11.82;;;6.95;;
66256;SDS011;53049;43.446;3.698;2024-02-04T09:13:19;11.57;;;6.60;;
66256;SDS011;53049;43.446;3.698;2024-02-04T09:15:45;10.88;;;7.18;;
66256;SDS011;53049;43.446;3.698;2024-02-04T09:18:10;9.98;;;6.88;;
66256;SDS011;53049;43.446;3.698;2024-02-04T09:20:36;10.88;;;7.15;;
66256;SDS011;53049;43.446;3.698;2024-02-04T09:23:02;12.05;;;7.15;;
66256;SDS011;53049;43.446;3.698;2024-02-04T09:25:28;10.93;;;7.28;;
66256;SDS011;53049;43.446;3.698;2024-02-04T09:27:54;12.02;;;6.90;;
66256;SDS011;53049;43.446;3.698;2024-02-04T09:30:20;11.35;;;7.05;;
66256;SDS011;53049;43.446;3.698;2024-02-04T09:32:45;10.90;;;6.88;;
66256;SDS011;53049;43.446;3.698;2024-02-04T09:35:11;10.57;;;6.55;;
66256;SDS011;53049;43.446;3.698;2024-02-04T09:37:37;11.60;;;6.93;;
66256;SDS011;53049;43.446;3.698;2024-02-04T09:40:03;12.07;;;6.63;;
66256;SDS011;53049;43.446;3.698;2024-02-04T09:42:29;10.15;;;6.28;;
66256;SDS011;53049;43.446;3.698;2024-02-04T09:44:56;14.68;;;6.60;;
66256;SDS011;53049;43.446;3.698;2024-02-04T09:47:22;9.70;;;6.38;;
66256;SDS011;53049;43.446;3.698;2024-02-04T09:49:48;10.93;;;6.38;;
66256;SDS011;53049;43.446;3.698;2024-02-04T09:52:14;12.82;;;7.25;;
66256;SDS011;53049;43.446;3.698;2024-02-04T09:54:45;10.60;;;5.75;;
66256;SDS011;53049;43.446;3.698;2024-02-04T09:57:14;11.63;;;6.43;;
66256;SDS011;53049;43.446;3.698;2024-02-04T09:59:43;9.98;;;5.90;;
66256;SDS011;53049;43.446;3.698;2024-02-04T10:02:09;9.60;;;5.50;;
66256;SDS011;53049;43.446;3.698;2024-02-04T10:04:35;10.02;;;5.95;;
66256;SDS011;53049;43.446;3.698;2024-02-04T10:07:02;10.85;;;6.47;;
66256;SDS011;53049;43.446;3.698;2024-02-04T10:09:27;11.63;;;7.25;;
66256;SDS011;53049;43.446;3.698;2024-02-04T10:11:55;11.13;;;5.68;;
66256;SDS011;53049;43.446;3.698;2024-02-04T10:14:21;10.15;;;6.63;;
66256;SDS011;53049;43.446;3.698;2024-02-04T10:16:47;10.07;;;5.88;;
66256;SDS011;53049;43.446;3.698;2024-02-04T10:19:13;10.23;;;6.53;;
66256;SDS011;53049;43.446;3.698;2024-02-04T10:21:38;8.80;;;5.28;;
66256;SDS011;53049;43.446;3.698;2024-02-04T10:24:05;9.43;;;5.90;;
66256;SDS011;53049;43.446;3.698;2024-02-04T10:26:32;9.55;;;6.03;;
66256;SDS011;53049;43.446;3.698;2024-02-04T10:29:00;9.20;;;5.28;;
66256;SDS011;53049;43.446;3.698;2024-02-04T10:31:26;9.43;;;5.18;;
66256;SDS011;53049;43.446;3.698;2024-02-04T10:33:52;8.20;;;5.75;;
66256;SDS011;53049;43.446;3.698;2024-02-04T10:36:19;10.60;;;6.63;;
66256;SDS011;53049;43.446;3.698;2024-02-04T10:38:45;12.38;;;6.90;;
66256;SDS011;53049;43.446;3.698;2024-02-04T10:41:13;9.57;;;6.03;;
66256;SDS011;53049;43.446;3.698;2024-02-04T10:43:40;12.30;;;6.50;;
66256;SDS011;53049;43.446;3.698;2024-02-04T10:46:09;11.68;;;6.50;;
66256;SDS011;53049;43.446;3.698;2024-02-04T10:48:37;10.27;;;5.68;;
66256;SDS011;53049;43.446;3.698;2024-02-04T10:51:13;9.52;;;5.28;;
66256;SDS011;53049;43.446;3.698;2024-02-04T10:53:43;10.90;;;5.78;;
66256;SDS011;53049;43.446;3.698;2024-02-04T10:56:56;9.13;;;5.80;;
66256;SDS011;53049;43.446;3.698;2024-02-04T10:59:02;10.88;;;6.13;;
66256;SDS011;53049;43.446;3.698;2024-02-04T11:01:29;10.55;;;5.68;;
66256;SDS011;53049;43.446;3.698;2024-02-04T11:03:55;9.70;;;5.85;;
66256;SDS011;53049;43.446;3.698;2024-02-04T11:06:23;10.65;;;5.63;;
66256;SDS011;53049;43.446;3.698;2024-02-04T11:08:52;10.07;;;5.05;;
66256;SDS011;53049;43.446;3.698;2024-02-04T11:11:19;10.77;;;5.25;;
66256;SDS011;53049;43.446;3.698;2024-02-04T11:13:47;8.23;;;4.90;;
66256;SDS011;53049;43.446;3.698;2024-02-04T11:16:18;8.95;;;4.03;;
66256;SDS011;53049;43.446;3.698;2024-02-04T11:27:09;9.13;;;5.05;;
66256;SDS011;53049;43.446;3.698;2024-02-04T11:29:35;9.73;;;5.10;;
66256;SDS011;53049;43.446;3.698;2024-02-04T11:32:01;8.60;;;4.78;;
66256;SDS011;53049;43.446;3.698;2024-02-04T11:34:27;9.02;;;4.03;;
66256;SDS011;53049;43.446;3.698;2024-02-04T11:36:54;6.53;;;3.45;;
66256;SDS011;53049;43.446;3.698;2024-02-04T11:39:20;8.52;;;3.80;;
66256;SDS011;53049;43.446;3.698;2024-02-04T11:41:47;10.35;;;4.43;;
66256;SDS011;53049;43.446;3.698;2024-02-04T11:44:20;9.00;;;4.43;;
66256;SDS011;53049;43.446;3.698;2024-02-04T11:46:47;7.90;;;4.22;;
66256;SDS011;53049;43.446;3.698;2024-02-04T11:49:16;8.02;;;3.78;;
66256;SDS011;53049;43.446;3.698;2024-02-04T11:51:46;7.10;;;4.22;;
66256;SDS011;53049;43.446;3.698;2024-02-04T11:54:16;7.82;;;4.22;;
66256;SDS011;53049;43.446;3.698;2024-02-04T11:56:44;8.23;;;4.55;;
66256;SDS011;53049;43.446;3.698;2024-02-04T11:59:11;7.22;;;4.03;;
66256;SDS011;53049;43.446;3.698;2024-02-04T12:01:39;8.85;;;4.15;;
66256;SDS011;53049;43.446;3.698;2024-02-04T12:04:23;5.80;;;3.50;;
66256;SDS011;53049;43.446;3.698;2024-02-04T12:06:52;7.05;;;3.47;;
66256;SDS011;53049;43.446;3.698;2024-02-04T12:09:18;7.72;;;3.65;;
66256;SDS011;53049;43.446;3.698;2024-02-04T12:11:44;5.68;;;3.42;;
66256;SDS011;53049;43.446;3.698;2024-02-04T12:14:11;7.28;;;3.55;;
66256;SDS011;53049;43.446;3.698;2024-02-04T12:16:38;5.80;;;3.50;;
66256;SDS011;53049;43.446;3.698;2024-02-04T12:19:05;6.75;;;3.55;;
66256;SDS011;53049;43.446;3.698;2024-02-04T12:21:31;7.32;;;3.55;;
66256;SDS011;53049;43.446;3.698;2024-02-04T12:23:58;7.85;;;3.70;;
66256;SDS011;53049;43.446;3.698;2024-02-04T12:26:24;6.63;;;3.13;;
66256;SDS011;53049;43.446;3.698;2024-02-04T12:28:50;8.23;;;3.38;;
66256;SDS011;53049;43.446;3.698;2024-02-04T12:31:19;7.90;;;3.47;;
66256;SDS011;53049;43.446;3.698;2024-02-04T12:33:56;7.28;;;3.10;;
66256;SDS011;53049;43.446;3.698;2024-02-04T12:36:29;7.10;;;3.30;;
66256;SDS011;53049;43.446;3.698;2024-02-04T12:39:00;7.35;;;3.30;;
66256;SDS011;53049;43.446;3.698;2024-02-04T12:41:27;6.82;;;3.10;;
66256;SDS011;53049;43.446;3.698;2024-02-04T12:43:54;6.82;;;3.40;;
66256;SDS011;53049;43.446;3.698;2024-02-04T12:46:21;6.38;;;3.28;;
66256;SDS011;53049;43.446;3.698;2024-02-04T12:48:51;6.80;;;3.03;;
66256;SDS011;53049;43.446;3.698;2024-02-04T12:51:28;6.43;;;3.40;;
66256;SDS011;53049;43.446;3.698;2024-02-04T12:54:09;6.85;;;3.28;;
66256;SDS011;53049;43.446;3.698;2024-02-04T13:04:24;10.68;;;3.40;;
66256;SDS011;53049;43.446;3.698;2024-02-04T13:06:50;5.07;;;2.95;;
66256;SDS011;53049;43.446;3.698;2024-02-04T13:09:16;7.15;;;3.40;;
66256;SDS011;53049;43.446;3.698;2024-02-04T13:11:43;5.15;;;3.30;;
66256;SDS011;53049;43.446;3.698;2024-02-04T13:14:08;5.60;;;3.13;;
66256;SDS011;53049;43.446;3.698;2024-02-04T13:16:35;7.40;;;3.42;;
66256;SDS011;53049;43.446;3.698;2024-02-04T13:19:04;7.80;;;3.47;;
66256;SDS011;53049;43.446;3.698;2024-02-04T13:21:30;7.88;;;3.35;;
66256;SDS011;53049;43.446;3.698;2024-02-04T13:23:55;8.23;;;3.65;;
66256;SDS011;53049;43.446;3.698;2024-02-04T13:26:21;9.30;;;3.08;;
66256;SDS011;53049;43.446;3.698;2024-02-04T13:28:47;8.02;;;2.90;;
66256;SDS011;53049;43.446;3.698;2024-02-04T13:31:13;7.38;;;2.90;;
66256;SDS011;53049;43.446;3.698;2024-02-04T13:33:39;10.27;;;3.53;;
66256;SDS011;53049;43.446;3.698;2024-02-04T13:36:06;7.38;;;3.10;;
66256;SDS011;53049;43.446;3.698;2024-02-04T13:38:33;6.47;;;2.80;;
66256;SDS011;53049;43.446;3.698;2024-02-04T13:40:59;5.90;;;2.63;;
66256;SDS011;53049;43.446;3.698;2024-02-04T13:43:25;8.40;;;3.28;;
66256;SDS011;53049;43.446;3.698;2024-02-04T13:45:51;8.52;;;3.22;;
66256;SDS011;53049;43.446;3.698;2024-02-04T13:48:17;7.07;;;3.25;;
66256;SDS011;53049;43.446;3.698;2024-02-04T13:50:45;10.40;;;3.78;;
66256;SDS011;53049;43.446;3.698;2024-02-04T13:53:11;5.88;;;3.30;;
66256;SDS011;53049;43.446;3.698;2024-02-04T13:55:36;7.82;;;3.45;;
66256;SDS011;53049;43.446;3.698;2024-02-04T13:58:03;10.35;;;4.30;;
66256;SDS011;53049;43.446;3.698;2024-02-04T14:00:29;8.85;;;3.80;;
66256;SDS011;53049;43.446;3.698;2024-02-04T14:02:55;6.97;;;3.55;;
66256;SDS011;53049;43.446;3.698;2024-02-04T14:05:20;8.95;;;3.50;;
66256;SDS011;53049;43.446;3.698;2024-02-04T14:07:46;9.20;;;3.30;;
66256;SDS011;53049;43.446;3.698;2024-02-04T14:10:12;7.60;;;3.20;;
66256;SDS011;53049;43.446;3.698;2024-02-04T14:12:39;7.82;;;3.17;;
66256;SDS011;53049;43.446;3.698;2024-02-04T14:15:09;9.00;;;3.78;;
66256;SDS011;53049;43.446;3.698;2024-02-04T14:17:35;8.82;;;3.10;;
66256;SDS011;53049;43.446;3.698;2024-02-04T14:20:00;9.57;;;3.15;;
66256;SDS011;53049;43.446;3.698;2024-02-04T14:22:26;7.25;;;2.88;;
66256;SDS011;53049;43.446;3.698;2024-02-04T14:24:52;9.10;;;3.40;;
66256;SDS011;53049;43.446;3.698;2024-02-04T14:27:18;7.88;;;3.22;;
66256;SDS011;53049;43.446;3.698;2024-02-04T14:29:44;10.02;;;3.35;;
66256;SDS011;53049;43.446;3.698;2024-02-04T14:32:10;6.20;;;3.10;;
66256;SDS011;53049;43.446;3.698;2024-02-04T14:34:35;8.70;;;3.20;;
66256;SDS011;53049;43.446;3.698;2024-02-04T14:37:01;9.15;;;3.80;;
66256;SDS011;53049;43.446;3.698;2024-02-04T14:39:27;8.10;;;3.40;;
66256;SDS011;53049;43.446;3.698;2024-02-04T14:41:52;9.57;;;3.20;;
66256;SDS011;53049;43.446;3.698;2024-02-04T14:44:19;7.97;;;3.50;;
66256;SDS011;53049;43.446;3.698;2024-02-04T14:46:45;9.32;;;2.85;;
66256;SDS011;53049;43.446;3.698;2024-02-04T14:49:13;8.57;;;3.08;;
66256;SDS011;53049;43.446;3.698;2024-02-04T14:51:38;8.00;;;2.83;;
66256;SDS011;53049;43.446;3.698;2024-02-04T14:54:05;7.00;;;3.40;;
66256;SDS011;53049;43.446;3.698;2024-02-04T14:56:36;7.55;;;3.13;;
66256;SDS011;53049;43.446;3.698;2024-02-04T14:59:06;11.25;;;3.15;;
66256;SDS011;53049;43.446;3.698;2024-02-04T15:01:33;12.90;;;3.47;;
66256;SDS011;53049;43.446;3.698;2024-02-04T15:04:00;8.98;;;2.97;;